Time;durP1;ratioP1;P1;durP2;ratioP2;P2;SDS_P1;SDS_P2;PMS_P1;PMS_P2;Temp;Humidity;BMP_temperature;BMP_pressure;BME280_temperature;BME280_humidity;BME280_pressure;Samples;Min_cycle;Max_cycle;Signal;HPM_P1;HPM_P2
2023/03/20 05:43:43;;;;;;;14.52;9.85;;;7.80;99.90;;;;;;5080613;28;20081;-83
2023/03/20 05:46:11;;;;;;;13.05;9.98;;;7.90;99.90;;;;;;5031879;28;20044;-85
2023/03/20 05:48:37;;;;;;;11.27;8.90;;;7.80;99.90;;;;;;5046799;28;20086;-85
2023/03/20 05:51:03;;;;;;;12.40;9.02;;;7.80;99.90;;;;;;5045027;28;20039;-86
2023/03/20 05:53:29;;;;;;;12.18;8.98;;;7.80;99.90;;;;;;5046351;28;20036;-85
2023/03/20 05:55:55;;;;;;;12.98;9.23;;;7.80;99.90;;;;;;5052326;28;20123;-83
2023/03/20 05:58:21;;;;;;;14.82;8.80;;;7.80;99.90;;;;;;5045688;28;20044;-83
2023/03/20 06:00:46;;;;;;;11.55;9.13;;;7.80;99.90;;;;;;5050783;28;20040;-83
2023/03/20 06:03:12;;;;;;;12.55;9.35;;;7.80;99.90;;;;;;5058772;28;20033;-83
2023/03/20 06:05:37;;;;;;;14.82;9.45;;;7.80;99.90;;;;;;5049118;28;20036;-83
2023/03/20 06:08:03;;;;;;;16.60;8.48;;;7.80;99.90;;;;;;5067900;28;20081;-85
2023/03/20 06:10:29;;;;;;;12.32;10.52;;;7.80;99.90;;;;;;5044202;28;20058;-87
2023/03/20 06:12:56;;;;;;;15.43;10.45;;;7.80;99.90;;;;;;5052760;28;20036;-84
2023/03/20 06:15:24;;;;;;;10.35;8.82;;;7.80;99.90;;;;;;5070117;28;20135;-85
2023/03/20 06:17:50;;;;;;;14.70;9.82;;;7.80;99.90;;;;;;5055082;28;20089;-84
2023/03/20 06:20:16;;;;;;;15.00;10.63;;;7.80;99.90;;;;;;5057873;28;20379;-85
2023/03/20 06:22:46;;;;;;;16.80;10.10;;;7.80;99.90;;;;;;5040953;28;20056;-89
2023/03/20 06:25:12;;;;;;;13.63;9.57;;;7.80;99.90;;;;;;5088314;28;20050;-85
2023/03/20 06:27:38;;;;;;;15.02;10.40;;;8.10;99.90;;;;;;5055663;28;20032;-84
2023/03/20 06:30:04;;;;;;;17.17;10.98;;;7.80;99.90;;;;;;5041281;28;20043;-83
2023/03/20 06:32:31;;;;;;;15.65;11.02;;;7.90;99.90;;;;;;5046608;28;20035;-84
2023/03/20 06:34:56;;;;;;;12.98;9.95;;;7.90;99.90;;;;;;5047008;28;20040;-85
2023/03/20 06:37:23;;;;;;;16.40;9.75;;;8.00;99.90;;;;;;5059897;28;20051;-83
2023/03/20 06:39:48;;;;;;;14.65;10.25;;;8.00;99.90;;;;;;5052956;28;20037;-83
2023/03/20 06:42:15;;;;;;;12.68;10.48;;;8.00;99.90;;;;;;5050640;28;20088;-83
2023/03/20 06:44:41;;;;;;;13.27;9.43;;;8.00;99.90;;;;;;5067340;28;20178;-83
2023/03/20 06:47:06;;;;;;;12.82;9.48;;;8.00;99.90;;;;;;5069008;28;20127;-85
2023/03/20 06:49:32;;;;;;;16.58;10.23;;;8.10;99.90;;;;;;5053283;28;20774;-85
2023/03/20 06:51:58;;;;;;;15.82;10.35;;;8.10;99.90;;;;;;5052042;28;20409;-84
2023/03/20 06:54:24;;;;;;;14.05;9.98;;;8.10;99.90;;;;;;5054309;28;20036;-85
2023/03/20 06:56:51;;;;;;;15.23;9.48;;;8.10;99.90;;;;;;5081026;28;20546;-84
2023/03/20 06:59:16;;;;;;;14.63;9.45;;;8.10;99.90;;;;;;5055073;28;20040;-84
2023/03/20 07:01:42;;;;;;;18.65;10.20;;;8.10;99.90;;;;;;5047640;28;20028;-83
2023/03/20 07:04:08;;;;;;;15.05;9.50;;;8.20;99.90;;;;;;5062573;28;20044;-82
2023/03/20 07:06:33;;;;;;;15.07;9.70;;;8.20;99.90;;;;;;5051700;28;20450;-81
2023/03/20 07:09:00;;;;;;;16.30;10.43;;;8.20;99.90;;;;;;5054867;28;20036;-83
2023/03/20 07:11:27;;;;;;;13.40;9.60;;;8.20;99.90;;;;;;5048197;28;20060;-83
2023/03/20 07:13:53;;;;;;;18.05;10.82;;;8.20;99.90;;;;;;5038578;28;20980;-82
2023/03/20 07:16:19;;;;;;;17.05;11.60;;;8.20;99.90;;;;;;5047036;28;20076;-82
2023/03/20 07:18:45;;;;;;;17.90;10.05;;;8.20;99.90;;;;;;5045521;28;20028;-84
2023/03/20 07:21:17;;;;;;;14.32;10.55;;;8.20;99.90;;;;;;5052081;28;20047;-82
2023/03/20 07:23:43;;;;;;;18.92;11.43;;;8.20;99.90;;;;;;5046538;28;20036;-83
2023/03/20 07:26:09;;;;;;;16.83;12.30;;;8.90;99.90;;;;;;5062985;28;20119;-83
2023/03/20 07:28:34;;;;;;;22.55;11.25;;;8.30;99.90;;;;;;5053389;28;20152;-82
2023/03/20 07:31:00;;;;;;;17.17;11.18;;;8.30;99.90;;;;;;5051054;28;20536;-83
2023/03/20 07:33:26;;;;;;;17.50;11.00;;;8.30;99.90;;;;;;5036586;28;20042;-82
2023/03/20 07:35:54;;;;;;;19.08;11.90;;;8.30;99.90;;;;;;5034482;28;20085;-82
2023/03/20 07:38:21;;;;;;;16.42;11.77;;;8.50;99.90;;;;;;5053769;28;20986;-82
2023/03/20 07:40:47;;;;;;;16.92;10.15;;;8.50;99.90;;;;;;5071720;28;20040;-82
2023/03/20 07:43:14;;;;;;;16.83;10.80;;;8.50;99.90;;;;;;5040304;28;20115;-82
2023/03/20 07:45:40;;;;;;;18.02;11.90;;;8.50;99.90;;;;;;5038537;28;20531;-82
2023/03/20 07:48:05;;;;;;;16.48;10.88;;;8.60;99.90;;;;;;5040472;28;20039;-82
2023/03/20 07:50:31;;;;;;;23.08;11.48;;;8.50;99.90;;;;;;5039778;28;20047;-81
2023/03/20 07:52:57;;;;;;;16.13;11.70;;;8.60;99.90;;;;;;5042002;28;20048;-81
2023/03/20 07:55:22;;;;;;;13.25;10.32;;;8.60;99.90;;;;;;5038331;28;20076;-82
2023/03/20 07:57:49;;;;;;;17.20;11.82;;;8.60;99.90;;;;;;5038387;28;20062;-82
2023/03/20 08:00:16;;;;;;;17.10;12.82;;;8.70;99.90;;;;;;5069801;28;20082;-81
2023/03/20 08:02:41;;;;;;;14.85;10.10;;;8.70;99.90;;;;;;5051787;28;20036;-82
2023/03/20 08:05:08;;;;;;;17.23;11.32;;;8.70;99.90;;;;;;5036170;28;20279;-82
2023/03/20 08:07:34;;;;;;;17.38;11.02;;;8.80;99.90;;;;;;5036179;28;20073;-82
2023/03/20 08:09:59;;;;;;;18.88;10.68;;;8.80;99.90;;;;;;5035968;28;20131;-82
2023/03/20 08:12:25;;;;;;;16.80;10.57;;;8.90;99.90;;;;;;5059116;28;20722;-82
2023/03/20 08:14:51;;;;;;;14.60;11.32;;;8.90;99.90;;;;;;5050469;28;20047;-81
2023/03/20 08:17:17;;;;;;;18.35;11.15;;;8.90;99.90;;;;;;5035223;28;20033;-82
2023/03/20 08:19:42;;;;;;;18.58;10.18;;;8.90;99.90;;;;;;5033729;28;20043;-81
2023/03/20 08:22:08;;;;;;;19.20;11.63;;;9.00;99.90;;;;;;5052606;28;20657;-83
2023/03/20 08:24:34;;;;;;;18.27;10.32;;;9.10;99.90;;;;;;5036299;28;20041;-82
2023/03/20 08:26:59;;;;;;;13.85;9.40;;;9.10;99.90;;;;;;5014865;28;20056;-82
2023/03/20 08:29:26;;;;;;;19.70;11.02;;;9.20;99.90;;;;;;5018199;28;20064;-81
2023/03/20 08:31:51;;;;;;;15.40;9.63;;;9.20;99.90;;;;;;5004131;28;20075;-82
2023/03/20 08:34:17;;;;;;;15.63;10.98;;;9.30;99.90;;;;;;5003499;28;20045;-83
2023/03/20 08:36:43;;;;;;;13.30;9.23;;;9.40;99.90;;;;;;5003850;28;20051;-82
2023/03/20 08:39:08;;;;;;;16.95;10.02;;;9.50;99.90;;;;;;5004387;28;20052;-81
2023/03/20 08:41:37;;;;;;;17.35;10.77;;;9.60;99.90;;;;;;5018365;28;20056;-82
2023/03/20 08:44:04;;;;;;;14.57;9.48;;;9.70;99.90;;;;;;5014942;28;20118;-83
2023/03/20 08:46:30;;;;;;;13.80;11.10;;;9.80;99.90;;;;;;5015261;28;20487;-82
2023/03/20 08:48:57;;;;;;;17.92;10.60;;;9.90;99.90;;;;;;5013951;28;20094;-83
2023/03/20 08:51:23;;;;;;;17.75;10.82;;;10.00;99.90;;;;;;4997710;28;21393;-84
2023/03/20 08:53:49;;;;;;;15.63;9.35;;;10.10;99.90;;;;;;5033422;28;21385;-83
2023/03/20 08:56:15;;;;;;;17.77;10.25;;;10.10;99.90;;;;;;5000602;28;20047;-83
2023/03/20 08:58:41;;;;;;;15.82;10.13;;;10.10;99.90;;;;;;5000219;28;20033;-84
2023/03/20 09:01:08;;;;;;;12.13;8.70;;;10.10;99.90;;;;;;4997877;28;20045;-84
2023/03/20 09:03:35;;;;;;;17.05;9.93;;;10.20;99.90;;;;;;5017441;28;20044;-84
2023/03/20 09:06:03;;;;;;;16.77;10.57;;;10.20;99.90;;;;;;5010844;28;20110;-85
2023/03/20 09:08:29;;;;;;;15.35;9.35;;;10.20;99.90;;;;;;5016706;28;20730;-83
2023/03/20 09:10:54;;;;;;;14.05;9.10;;;10.30;99.90;;;;;;5014588;28;20124;-83
2023/03/20 09:13:21;;;;;;;12.60;9.02;;;10.30;99.90;;;;;;5000538;28;20095;-84
2023/03/20 09:15:47;;;;;;;13.95;10.00;;;10.50;99.90;;;;;;5000112;28;20043;-83
2023/03/20 09:18:12;;;;;;;14.20;10.15;;;10.50;99.90;;;;;;5002326;28;20040;-83
2023/03/20 09:20:38;;;;;;;15.85;10.40;;;10.50;99.90;;;;;;4998379;28;20040;-84
2023/03/20 09:23:03;;;;;;;11.73;8.73;;;10.60;99.90;;;;;;4998898;28;20037;-84
2023/03/20 09:25:29;;;;;;;17.73;9.82;;;10.70;99.90;;;;;;4996645;28;20052;-83
2023/03/20 09:27:55;;;;;;;11.80;8.43;;;10.80;99.90;;;;;;4995568;28;20159;-82
2023/03/20 09:30:22;;;;;;;11.80;8.85;;;10.70;99.90;;;;;;4998760;28;20037;-84
2023/03/20 09:32:48;;;;;;;14.88;9.02;;;10.80;99.90;;;;;;4997878;28;20037;-83
2023/03/20 09:35:15;;;;;;;12.25;7.72;;;10.80;99.90;;;;;;4999647;28;20056;-83
2023/03/20 09:37:40;;;;;;;14.10;8.18;;;10.80;99.90;;;;;;4996872;28;20075;-83
2023/03/20 09:40:07;;;;;;;13.20;8.60;;;10.80;99.90;;;;;;4996553;28;20392;-83
2023/03/20 09:42:48;;;;;;;12.85;8.43;;;10.90;99.90;;;;;;4996932;28;20029;-84
2023/03/20 09:45:51;;;;;;;12.10;8.50;;;11.00;99.90;;;;;;5011084;28;20578;-84
2023/03/20 09:48:21;;;;;;;8.70;7.80;;;10.90;99.90;;;;;;4970506;28;20052;-82
2023/03/20 09:51:02;;;;;;;11.10;8.20;;;10.80;99.90;;;;;;5003697;28;20072;-84
2023/03/20 09:53:35;;;;;;;10.95;7.35;;;10.80;99.90;;;;;;5000361;28;20032;-84
2023/03/20 09:56:01;;;;;;;14.35;8.30;;;10.80;99.90;;;;;;5004129;28;20053;-85
2023/03/20 09:58:33;;;;;;;13.05;7.88;;;10.70;99.90;;;;;;5002735;28;20041;-82
2023/03/20 10:01:01;;;;;;;12.05;7.43;;;10.80;99.90;;;;;;4998369;28;20862;-85
2023/03/20 10:03:35;;;;;;;12.45;7.63;;;10.80;99.90;;;;;;5003123;28;20033;-83
2023/03/20 10:06:07;;;;;;;13.70;6.95;;;11.60;99.90;;;;;;5002550;28;21777;-84
2023/03/20 10:08:54;;;;;;;13.80;7.75;;;11.00;99.90;;;;;;5005345;28;20094;-85
2023/03/20 10:11:56;;;;;;;13.25;7.68;;;10.90;99.90;;;;;;5019650;28;20049;-83
2023/03/20 10:14:28;;;;;;;14.88;8.70;;;10.90;99.90;;;;;;5003711;28;20053;-85
2023/03/20 10:17:06;;;;;;;12.40;7.88;;;10.90;99.90;;;;;;5001862;28;20056;-82
2023/03/20 10:19:49;;;;;;;12.60;7.25;;;10.80;99.90;;;;;;5020191;28;20059;-84
2023/03/20 10:22:24;;;;;;;18.25;7.57;;;10.80;99.90;;;;;;5000748;28;20490;-85
2023/03/20 10:24:57;;;;;;;13.88;7.78;;;10.70;99.90;;;;;;5002458;28;20045;-84
2023/03/20 10:27:27;;;;;;;14.13;7.97;;;10.70;99.90;;;;;;5000727;28;20037;-85
2023/03/20 10:30:21;;;;;;;15.65;7.97;;;10.50;99.90;;;;;;5004508;28;20214;-82
2023/03/20 10:32:51;;;;;;;16.05;7.63;;;10.40;99.90;;;;;;5004338;28;20090;-84
2023/03/20 10:35:22;;;;;;;14.30;7.65;;;10.40;99.90;;;;;;5018345;28;20076;-84
2023/03/20 10:38:02;;;;;;;11.70;7.35;;;10.60;99.90;;;;;;5002459;28;20083;-85
2023/03/20 10:40:30;;;;;;;13.23;6.65;;;10.40;99.90;;;;;;5016994;28;20097;-84
2023/03/20 10:43:03;;;;;;;12.95;6.72;;;10.40;99.90;;;;;;5001347;28;20067;-84
2023/03/20 10:45:38;;;;;;;11.32;6.32;;;10.30;99.90;;;;;;5002369;28;20041;-84
2023/03/20 10:48:13;;;;;;;12.90;7.65;;;10.40;99.90;;;;;;4996934;28;20063;-83
2023/03/20 10:50:52;;;;;;;14.32;6.47;;;10.40;99.90;;;;;;5004160;28;20128;-82
2023/03/20 10:53:38;;;;;;;16.05;6.80;;;10.40;99.90;;;;;;4999596;28;20450;-83
2023/03/20 10:56:12;;;;;;;10.30;6.35;;;10.50;99.90;;;;;;5000584;28;20045;-84
2023/03/20 10:58:40;;;;;;;13.85;5.60;;;10.50;99.90;;;;;;5016258;28;20107;-85
2023/03/20 11:01:14;;;;;;;11.25;5.35;;;10.60;99.90;;;;;;5020209;28;20048;-84
2023/03/20 11:07:33;;;;;;;13.68;6.03;;;10.50;99.90;;;;;;5033715;28;20075;-84
2023/03/20 11:10:04;;;;;;;9.60;5.60;;;10.40;99.90;;;;;;5016846;28;20041;-83
2023/03/20 11:12:36;;;;;;;12.57;5.68;;;10.40;99.90;;;;;;4995950;28;20049;-82
2023/03/20 11:15:23;;;;;;;15.85;5.95;;;10.20;99.90;;;;;;5015591;28;20041;-82
2023/03/20 11:18:25;;;;;;;12.75;5.65;;;10.30;99.90;;;;;;5003768;28;20048;-83
2023/03/20 11:20:56;;;;;;;12.85;6.90;;;10.30;99.90;;;;;;5003752;28;20100;-85
2023/03/20 11:23:33;;;;;;;12.27;5.85;;;10.30;99.90;;;;;;5003265;28;20071;-86
2023/03/20 11:26:05;;;;;;;7.47;4.28;;;10.20;99.90;;;;;;5023050;28;20041;-85
2023/03/20 11:29:02;;;;;;;9.75;5.00;;;10.30;99.90;;;;;;5012271;28;20048;-88
2023/03/20 11:40:09;;;;;;;12.68;5.90;;;10.10;99.90;;;;;;4908357;29;20601;-83
2023/03/20 11:43:14;;;;;;;12.65;5.60;;;10.20;99.90;;;;;;4889459;29;20040;-86
2023/03/20 11:45:43;;;;;;;7.95;4.45;;;10.20;99.90;;;;;;4897878;28;20045;-85
2023/03/20 11:48:44;;;;;;;9.73;4.72;;;11.00;99.90;;;;;;4986020;28;20430;-86
2023/03/20 11:51:20;;;;;;;9.25;4.28;;;10.10;99.90;;;;;;5001170;28;20052;-84
2023/03/20 11:54:18;;;;;;;9.93;4.18;;;11.20;99.90;;;;;;4994464;28;20051;-84
2023/03/20 12:00:39;;;;;;;9.63;3.72;;;9.90;99.90;;;;;;4952267;28;20097;-84
2023/03/20 12:03:59;;;;;;;10.50;3.60;;;9.90;99.90;;;;;;4938304;28;20038;-84
2023/03/20 12:25:40;;;;;;;8.10;2.97;;;10.00;99.90;;;;;;4876307;29;20092;-84
2023/03/20 12:28:41;;;;;;;4.95;2.78;;;9.90;99.90;;;;;;4862285;29;20137;-83
2023/03/20 12:31:57;;;;;;;6.55;2.40;;;9.90;99.90;;;;;;4886313;28;20062;-84
2023/03/20 12:42:08;;;;;;;12.48;4.53;;;9.80;99.90;;;;;;5024322;28;20040;-83
2023/03/20 12:45:28;;;;;;;9.27;3.05;;;9.80;99.90;;;;;;4997649;28;20383;-84
2023/03/20 13:26:16;;;;;;;8.27;4.03;;;9.20;99.90;;;;;;5033512;28;20043;-85
2023/03/20 13:29:05;;;;;;;8.57;4.43;;;9.10;99.90;;;;;;5005561;28;20048;-84
2023/03/20 13:40:04;;;;;;;11.60;4.50;;;9.20;99.90;;;;;;5038908;28;20052;-84
2023/03/20 13:50:19;;;;;;;7.70;5.03;;;9.10;99.90;;;;;;4985018;28;20040;-84
2023/03/20 13:52:55;;;;;;;8.90;5.53;;;9.10;99.90;;;;;;5004941;28;20110;-83
2023/03/20 13:56:24;;;;;;;10.30;5.72;;;9.30;99.90;;;;;;5009638;28;20245;-87
2023/03/20 14:03:18;;;;;;;9.82;4.93;;;9.00;99.90;;;;;;4939013;28;20054;-87
2023/03/20 14:05:45;;;;;;;11.55;5.45;;;9.00;99.90;;;;;;4940121;28;20122;-86
2023/03/20 14:08:29;;;;;;;10.60;5.90;;;8.90;99.90;;;;;;5008498;28;20041;-85
2023/03/20 14:11:20;;;;;;;9.95;6.25;;;9.00;99.90;;;;;;5003508;28;20044;-85
2023/03/20 14:13:54;;;;;;;9.25;6.00;;;8.90;99.90;;;;;;4996467;28;20048;-83
2023/03/20 14:16:21;;;;;;;9.13;5.55;;;8.90;99.90;;;;;;5014728;28;20127;-83
2023/03/20 14:18:48;;;;;;;11.68;6.47;;;8.90;99.90;;;;;;5001000;28;20037;-83
2023/03/20 14:21:20;;;;;;;12.35;7.00;;;8.90;99.90;;;;;;5005543;28;20079;-83
2023/03/20 14:24:01;;;;;;;11.05;7.68;;;8.90;99.90;;;;;;4999122;28;21835;-84
2023/03/20 14:26:40;;;;;;;14.35;6.63;;;8.90;99.90;;;;;;5018118;28;20044;-84
2023/03/20 14:29:09;;;;;;;13.05;7.40;;;8.90;99.90;;;;;;5002899;28;20106;-82
2023/03/20 14:31:40;;;;;;;13.25;8.20;;;8.90;99.90;;;;;;5005929;28;20103;-82
2023/03/20 14:34:15;;;;;;;13.02;9.10;;;8.80;99.90;;;;;;5003077;28;20045;-83
2023/03/20 14:36:55;;;;;;;15.90;9.63;;;8.80;99.90;;;;;;5016961;28;20123;-83
2023/03/20 14:39:41;;;;;;;18.77;11.15;;;8.80;99.90;;;;;;5003711;28;20037;-84
2023/03/20 14:42:36;;;;;;;12.60;10.05;;;8.80;99.90;;;;;;5003001;28;21455;-83
2023/03/20 14:45:20;;;;;;;14.85;13.00;;;8.80;99.90;;;;;;5003154;28;20032;-83
2023/03/20 14:48:15;;;;;;;14.27;9.75;;;8.80;99.90;;;;;;5004315;28;20503;-80
2023/03/20 14:51:06;;;;;;;10.83;8.77;;;8.80;99.90;;;;;;5004614;28;20041;-83
2023/03/20 14:53:32;;;;;;;16.10;9.13;;;8.80;99.90;;;;;;5016255;28;20148;-83
2023/03/20 14:56:13;;;;;;;13.93;9.07;;;8.80;99.90;;;;;;5023515;28;21535;-85
2023/03/20 14:59:16;;;;;;;17.10;10.27;;;8.80;99.90;;;;;;4996403;28;20653;-85
2023/03/20 15:01:56;;;;;;;14.65;10.48;;;8.80;99.90;;;;;;5016006;28;20106;-84
2023/03/20 15:04:40;;;;;;;12.55;9.05;;;8.80;99.90;;;;;;5003537;28;20099;-85
2023/03/20 15:07:12;;;;;;;15.40;11.00;;;8.80;99.90;;;;;;4999683;28;20041;-84
2023/03/20 15:09:42;;;;;;;16.05;10.90;;;8.80;99.90;;;;;;5000464;28;20078;-82
2023/03/20 15:12:11;;;;;;;12.85;9.25;;;8.80;99.90;;;;;;5018442;28;20041;-82
2023/03/20 15:14:45;;;;;;;11.43;8.63;;;8.80;99.90;;;;;;4999258;28;20032;-82
2023/03/20 15:17:21;;;;;;;14.13;9.32;;;8.90;99.90;;;;;;5001509;28;21259;-83
2023/03/20 15:19:47;;;;;;;;;;;8.80;99.90;;;;;;5018113;28;20069;-83
2023/03/20 15:22:18;;;;;;;13.45;9.20;;;8.90;99.90;;;;;;5002034;28;20024;-84
2023/03/20 15:24:52;;;;;;;11.85;8.85;;;8.80;99.90;;;;;;5017364;28;20041;-83
2023/03/20 15:27:19;;;;;;;13.32;9.70;;;8.90;99.90;;;;;;5002218;28;20212;-82
2023/03/20 15:29:50;;;;;;;12.00;8.90;;;8.90;99.90;;;;;;5004160;28;20041;-84
2023/03/20 15:32:16;;;;;;;12.50;8.48;;;8.80;99.90;;;;;;5003300;28;20076;-84
2023/03/20 15:34:44;;;;;;;14.35;10.55;;;8.90;99.90;;;;;;5015895;28;20071;-83
2023/03/20 15:37:15;;;;;;;15.57;9.27;;;8.80;99.90;;;;;;5003671;28;20403;-82
2023/03/20 15:39:44;;;;;;;13.25;8.52;;;8.80;99.90;;;;;;5002817;28;20536;-82
2023/03/20 15:42:13;;;;;;;12.75;9.05;;;8.80;99.90;;;;;;5003798;28;20127;-83
2023/03/20 15:44:41;;;;;;;13.05;8.75;;;8.80;99.90;;;;;;5015571;28;20036;-84
2023/03/20 15:47:09;;;;;;;11.65;9.25;;;8.80;99.90;;;;;;4998905;28;20044;-84
2023/03/20 15:49:39;;;;;;;9.05;8.15;;;8.80;99.90;;;;;;5000388;28;20171;-83
2023/03/20 15:52:16;;;;;;;10.48;9.20;;;8.80;99.90;;;;;;4998202;28;20048;-82
2023/03/20 15:54:42;;;;;;;9.77;8.57;;;8.70;99.90;;;;;;5004111;28;20045;-82
2023/03/20 15:57:15;;;;;;;12.25;10.95;;;8.70;99.90;;;;;;5000330;28;21326;-84
2023/03/20 15:59:41;;;;;;;12.30;11.02;;;8.70;99.90;;;;;;5017511;28;20041;-84
2023/03/20 16:02:12;;;;;;;11.57;10.40;;;8.80;99.90;;;;;;5017028;28;20084;-84
2023/03/20 16:04:51;;;;;;;12.52;11.27;;;8.80;99.90;;;;;;5000028;28;20083;-86
2023/03/20 16:07:29;;;;;;;15.05;13.55;;;8.80;99.90;;;;;;5015682;28;20155;-86
2023/03/20 16:10:14;;;;;;;13.95;12.55;;;8.80;99.90;;;;;;5005499;28;20068;-86
2023/03/20 16:12:46;;;;;;;13.07;11.80;;;8.90;99.90;;;;;;5009600;28;20033;-84
2023/03/20 16:15:17;;;;;;;15.45;13.77;;;8.90;99.90;;;;;;4999324;28;20076;-86
2023/03/20 16:18:14;;;;;;;15.40;13.75;;;8.90;99.90;;;;;;4984644;28;20049;-85
2023/03/20 16:21:10;;;;;;;12.68;11.38;;;9.50;99.90;;;;;;5013333;28;20138;-85
2023/03/20 16:23:43;;;;;;;16.52;14.55;;;8.90;99.90;;;;;;5002312;28;20033;-83
2023/03/20 16:26:15;;;;;;;15.15;13.77;;;8.90;99.90;;;;;;5018820;28;20033;-81
2023/03/20 16:28:44;;;;;;;14.30;12.82;;;8.90;99.90;;;;;;5019950;28;20519;-81
2023/03/20 16:31:15;;;;;;;12.82;11.70;;;8.90;99.90;;;;;;5037414;28;20075;-83
2023/03/20 16:33:42;;;;;;;14.63;13.15;;;8.90;99.90;;;;;;5005621;28;20090;-83
2023/03/20 16:36:17;;;;;;;14.10;12.82;;;8.90;99.90;;;;;;5022716;28;20183;-85
2023/03/20 16:38:54;;;;;;;18.67;16.92;;;8.80;99.90;;;;;;5003344;28;20051;-84
2023/03/20 16:41:35;;;;;;;14.43;12.90;;;8.90;99.90;;;;;;5022779;28;20037;-82
2023/03/20 16:44:26;;;;;;;14.88;13.38;;;8.80;99.90;;;;;;5023253;28;20123;-87
2023/03/20 16:47:46;;;;;;;17.08;15.40;;;8.90;99.90;;;;;;4992803;28;20051;-87
2023/03/20 16:55:36;;;;;;;15.43;14.23;;;8.80;99.90;;;;;;4948771;28;20122;-86
2023/03/20 16:58:54;;;;;;;16.35;14.95;;;8.80;99.90;;;;;;4920184;28;20188;-87
2023/03/20 17:53:17;;;;;;;21.27;19.40;;;8.70;99.90;;;;;;5040259;28;20095;-85
2023/03/20 17:55:52;;;;;;;21.70;19.80;;;8.70;99.90;;;;;;5007124;28;20102;-86
2023/03/20 17:58:22;;;;;;;26.25;23.85;;;8.70;99.90;;;;;;5026474;28;20063;-85
2023/03/20 18:00:52;;;;;;;25.10;22.50;;;8.70;99.90;;;;;;5005951;28;20053;-84
2023/03/20 18:03:18;;;;;;;24.67;22.20;;;8.70;99.90;;;;;;5024792;28;20037;-85
2023/03/20 18:05:46;;;;;;;25.30;23.00;;;8.70;99.90;;;;;;5029777;28;20467;-84
2023/03/20 18:08:20;;;;;;;30.45;27.15;;;8.70;99.90;;;;;;5018965;28;20116;-85
2023/03/20 18:10:55;;;;;;;26.80;24.10;;;8.70;99.90;;;;;;5013445;28;20041;-86
2023/03/20 18:13:28;;;;;;;25.67;23.07;;;8.70;99.90;;;;;;5015098;28;20404;-86
2023/03/20 18:16:28;;;;;;;27.30;24.38;;;8.70;99.90;;;;;;5018219;28;20307;-86
2023/03/20 18:19:47;;;;;;;25.15;22.73;;;8.80;99.90;;;;;;5012693;28;20105;-87
2023/03/20 18:22:18;;;;;;;26.02;23.30;;;8.70;99.90;;;;;;5042018;28;20134;-86
2023/03/20 18:24:47;;;;;;;27.45;24.73;;;8.70;99.90;;;;;;4999970;28;20043;-86
2023/03/20 18:27:13;;;;;;;31.27;28.08;;;8.70;99.90;;;;;;5034774;28;20394;-87
2023/03/20 18:29:58;;;;;;;28.98;26.02;;;9.30;99.90;;;;;;5045786;28;20171;-87
2023/03/20 18:32:26;;;;;;;27.10;24.45;;;8.70;99.90;;;;;;5015682;28;20063;-85
2023/03/20 18:35:22;;;;;;;28.05;25.23;;;9.60;99.90;;;;;;5031329;28;20032;-88
2023/03/20 18:37:51;;;;;;;30.15;27.35;;;8.80;99.90;;;;;;5014568;28;20041;-87
2023/03/20 18:40:28;;;;;;;27.02;24.50;;;9.40;99.90;;;;;;5000036;28;20041;-87
2023/03/20 18:43:03;;;;;;;28.85;26.13;;;8.70;99.90;;;;;;5016814;28;20048;-86
2023/03/20 18:45:30;;;;;;;31.08;27.75;;;8.70;99.90;;;;;;5012309;28;20033;-86
2023/03/20 18:55:11;;;;;;;32.33;29.02;;;8.70;99.90;;;;;;5005139;28;20997;-89
2023/03/20 18:57:57;;;;;;;29.10;26.00;;;8.70;99.90;;;;;;5054956;28;20786;-87
2023/03/20 19:00:34;;;;;;;26.38;23.88;;;8.70;99.90;;;;;;5031095;28;20071;-87
2023/03/20 19:03:00;;;;;;;31.35;28.00;;;8.70;99.90;;;;;;5014688;28;20073;-88
2023/03/20 19:05:39;;;;;;;30.92;27.88;;;8.70;99.90;;;;;;5022425;28;20036;-89
2023/03/20 19:08:19;;;;;;;28.85;26.08;;;8.80;99.90;;;;;;5034233;28;20033;-89
2023/03/20 19:10:46;;;;;;;29.08;26.08;;;9.70;99.90;;;;;;5014295;28;20186;-88
2023/03/20 19:13:18;;;;;;;28.85;26.08;;;8.90;99.90;;;;;;5018801;28;20041;-88
2023/03/20 19:15:45;;;;;;;31.00;27.98;;;8.70;99.90;;;;;;5017698;28;20402;-89
2023/03/20 19:18:20;;;;;;;29.15;26.35;;;8.90;99.90;;;;;;5017957;28;20044;-88
2023/03/20 19:20:50;;;;;;;;;;;8.70;99.90;;;;;;5032246;28;20068;-86
2023/03/20 19:23:21;;;;;;;29.65;26.75;;;8.30;99.90;;;;;;5031582;28;19963;-87
2023/03/20 19:25:49;;;;;;;29.45;26.65;;;8.70;99.90;;;;;;4994016;28;20142;-86
2023/03/20 19:28:34;;;;;;;33.45;29.85;;;9.20;99.90;;;;;;5015058;28;20032;-88
2023/03/20 19:31:32;;;;;;;29.70;26.80;;;8.70;99.90;;;;;;5048503;28;20620;-88
2023/03/20 19:34:36;;;;;;;32.78;29.23;;;8.80;99.90;;;;;;5014387;28;20119;-88
2023/03/20 19:37:58;;;;;;;33.30;29.85;;;8.80;99.90;;;;;;5029358;28;20124;-87
2023/03/20 19:40:51;;;;;;;41.22;36.63;;;8.80;99.90;;;;;;5013363;28;20056;-86
